Sheppard Air Force Base-Wichita Falls Municipal Airport
KSPS : now visible

Airfield :











YOU CAN JOIN US ON...

 
LOGIN :

Register | Disclaimer

   EN    FR    IT 

 









Legend :    VFR   Marginal VFR   IFR   Intensive IFR   Very Intensive IFR
Visi :
Ceiling :
>= 8 km
>= 3000ft
5 to 8 km
1000 to 3000 ft
1500m to 5 km
500 to 1000 ft
800 to 1500m
200 to 500 ft
< 800m
< 200 ft
Symbols :   Thunderstorms  Fog  Heavy snow  Heavy precipitations  Wind > 20 kt






- Airport Elevation : 1019 ft
- IATA code : SPS


KSPS - Sheppard Air Force Base-Wichita Falls Municipal

CURRENT METAR :
  • 171652Z AUTO 01019G22KT 10SM CLR 14/03 A3008 RMK AO2 SLP182 T01440033

EXPIRED METARs :
  • 171552Z AUTO 35007KT 10SM CLR 11/04 A3008 RMK AO2 SLP185 T01060044
  • 171452Z AUTO 02004KT 10SM CLR 08/04 A3008 RMK AO2 SLP184 T00780039 51023

TAF KSPS
Valid from the 17 at 12:00 until the 18 at 12:00 UTC


171121Z 1712/1812 16010KT P6SM BKN250
FM171300 35010KT P6SM BKN250
FM171500 01014G19KT P6SM SCT250
FM180000 30005KT P6SM FEW250



MET'MAP, your aeronautical weather chart ! - Copyright ORBIFLY December 2007 - Disclaimer

ORBIFLY MET'MAP TEAM :

Programming & Development : Alexandra Zaïnal
Concept & Development : Baudouin d'Aumeries
Co-Development & Prog : Marc-Olivier Méhu
Technical & hardware support : Manuel Goepfert

Contact : metmap@orbifly.com




SOURCES & CREDITS :

   NOAA       Earth
Advisory